Lockport, NY

1:22 AM EST on February 08, 2016 (GMT -0500)
PENDLETON | | Change Station
CLOSE
Current Station
Personal Weather Station
Location: LOCKPORT, NY
Elevation: 595 ft
Nearby Weather Stations

Elev 595 ft 43.10 °N, 78.80 °W | Updated 1 second ago

Partly Cloudy
Partly Cloudy
39.4 °F
Feels Like 36 °F
N
4.9
Wind Variable Wind from SSE
Gusts 6.0 mph

Today
High -- | Low -- °F
--% Chance of Precip.
Yesterday
High -- | Low -- °F
Precip. -- in
Pressure 29.81 in
Visibility 10.0 miles
Clouds Few 8000 ft
Windchill 36 °F
Dew Point 28 °F
Humidity 65%
Rainfall 0.00 in
Snow Depth Not available.
7:22 AM 5:36 PM
Waning Crescent, 0% visible
METAR KIAG 080553Z AUTO 17008KT 10SM FEW080 06/M03 A2978 RMK AO2 SLP093 T00611033 10072 20044 58020
Pressure 29.81 in
Visibility 10.0 miles
Clouds Few 8000 ft
Windchill 36 °F
Dew Point 28 °F
Humidity 65%
Rainfall 0.00 in
Snow Depth Not available.
7:22 AM 5:36 PM
Waning Crescent, 0% visible
METAR KIAG 080553Z AUTO 17008KT 10SM FEW080 06/M03 A2978 RMK AO2 SLP093 T00611033 10072 20044 58020

10-Day Weather Forecast

Almanac

Astronomy

Feb. 08, 2016 Rise Set
Actual Time
Civil Twilight
Nautical Twilight
Astronomical Twilight
Moon
Length of Visible Light
Length of Day
Tomorrow will be .
, % of the Moon is Illuminated

Today's Extremes

State Highs State Lows

Community

WunderPhotos

Upload Photos

1,891,393 photos uploaded!

WunderBlog® & News

Nearby

Air Quality

  Air Quality AQ Index Pollutant
Not available.

Snow Depth

Station Depth Elevation

Earthquake Activity

City Distance Mag. Time & Date
Minimum magnitude displayed is 2.5.

Coastal Water Temperatures

Place Temperature

Stations

Nearby Weather Stations

Station Location Temp. Windchill Dew Point Humidity Wind Precip. Elev Updated Type
                   

Watches & Warnings

There are currently no watches in effect.